Terminal Aerodrome Forecast
Issued by NWS Newport/Morehead City, NC

Home | Current Version | Previous Version | Text Only | Print | Product List | Glossary On
Versions: 1 2 3 4 5 6 7 8 9 10 11 12 13 14 15 16 17 18
000
FTUS42 KMHX 181729
TAFEWN
TAF
KEWN 181729Z 1818/1918 05010KT P6SM SKC
     FM190000 08005KT P6SM SKC
     FM190400 07005KT P6SM BKN045
     FM190900 VRB03KT P6SM BKN025
     FM191200 VRB03KT P6SM BKN015=

USA.gov is the U.S. government's official web portal to all federal, state and local government web resources and services.